sensor_id;sensor_type;location;lat;lon;timestamp;P1;durP1;ratioP1;P2;durP2;ratioP2
14381;SDS011;7275;50.328;8.720;2023-06-14T00:01:49;3.23;;;2.90;;
14381;SDS011;7275;50.328;8.720;2023-06-14T00:04:17;3.33;;;2.83;;
14381;SDS011;7275;50.328;8.720;2023-06-14T00:06:47;3.37;;;3.07;;
14381;SDS011;7275;50.328;8.720;2023-06-14T00:09:17;3.27;;;2.97;;
14381;SDS011;7275;50.328;8.720;2023-06-14T00:11:46;3.17;;;2.87;;
14381;SDS011;7275;50.328;8.720;2023-06-14T00:14:14;3.30;;;3.00;;
14381;SDS011;7275;50.328;8.720;2023-06-14T00:16:42;3.10;;;2.80;;
14381;SDS011;7275;50.328;8.720;2023-06-14T00:19:09;3.10;;;2.80;;
14381;SDS011;7275;50.328;8.720;2023-06-14T00:21:37;3.40;;;2.83;;
14381;SDS011;7275;50.328;8.720;2023-06-14T00:24:07;3.97;;;2.73;;
14381;SDS011;7275;50.328;8.720;2023-06-14T00:26:35;3.17;;;2.67;;
14381;SDS011;7275;50.328;8.720;2023-06-14T00:29:04;3.73;;;2.80;;
14381;SDS011;7275;50.328;8.720;2023-06-14T00:31:32;3.63;;;2.73;;
14381;SDS011;7275;50.328;8.720;2023-06-14T00:34:00;3.07;;;2.87;;
14381;SDS011;7275;50.328;8.720;2023-06-14T00:36:28;3.20;;;2.60;;
14381;SDS011;7275;50.328;8.720;2023-06-14T00:38:55;3.17;;;2.87;;
14381;SDS011;7275;50.328;8.720;2023-06-14T00:41:23;2.90;;;2.70;;
14381;SDS011;7275;50.328;8.720;2023-06-14T00:43:51;4.03;;;3.00;;
14381;SDS011;7275;50.328;8.720;2023-06-14T00:46:23;3.17;;;2.87;;
14381;SDS011;7275;50.328;8.720;2023-06-14T00:48:51;4.53;;;2.80;;
14381;SDS011;7275;50.328;8.720;2023-06-14T00:51:19;2.87;;;2.67;;
14381;SDS011;7275;50.328;8.720;2023-06-14T00:53:48;3.23;;;2.67;;
14381;SDS011;7275;50.328;8.720;2023-06-14T00:56:16;2.97;;;2.77;;
14381;SDS011;7275;50.328;8.720;2023-06-14T00:58:47;2.80;;;2.60;;
14381;SDS011;7275;50.328;8.720;2023-06-14T01:01:15;3.10;;;2.80;;
14381;SDS011;7275;50.328;8.720;2023-06-14T01:03:45;3.30;;;2.70;;
14381;SDS011;7275;50.328;8.720;2023-06-14T01:06:17;2.80;;;2.60;;
14381;SDS011;7275;50.328;8.720;2023-06-14T01:08:57;2.90;;;2.70;;
14381;SDS011;7275;50.328;8.720;2023-06-14T01:11:35;5.13;;;3.00;;
14381;SDS011;7275;50.328;8.720;2023-06-14T01:14:08;5.33;;;2.80;;
14381;SDS011;7275;50.328;8.720;2023-06-14T01:16:39;3.10;;;2.90;;
14381;SDS011;7275;50.328;8.720;2023-06-14T01:19:09;2.80;;;2.60;;
14381;SDS011;7275;50.328;8.720;2023-06-14T01:21:40;2.77;;;2.53;;
14381;SDS011;7275;50.328;8.720;2023-06-14T01:24:10;3.77;;;2.67;;
14381;SDS011;7275;50.328;8.720;2023-06-14T01:26:38;4.07;;;2.80;;
14381;SDS011;7275;50.328;8.720;2023-06-14T01:29:12;3.37;;;2.60;;
14381;SDS011;7275;50.328;8.720;2023-06-14T01:31:44;2.80;;;2.60;;
14381;SDS011;7275;50.328;8.720;2023-06-14T01:34:13;4.07;;;2.80;;
14381;SDS011;7275;50.328;8.720;2023-06-14T01:36:41;3.40;;;2.77;;
14381;SDS011;7275;50.328;8.720;2023-06-14T01:39:14;2.67;;;2.47;;
14381;SDS011;7275;50.328;8.720;2023-06-14T01:41:42;4.97;;;2.70;;
14381;SDS011;7275;50.328;8.720;2023-06-14T01:44:12;4.00;;;2.70;;
14381;SDS011;7275;50.328;8.720;2023-06-14T01:46:42;2.80;;;2.60;;
14381;SDS011;7275;50.328;8.720;2023-06-14T01:49:10;2.43;;;2.20;;
14381;SDS011;7275;50.328;8.720;2023-06-14T01:51:39;2.60;;;2.40;;
14381;SDS011;7275;50.328;8.720;2023-06-14T01:54:07;3.13;;;2.77;;
14381;SDS011;7275;50.328;8.720;2023-06-14T01:56:36;4.23;;;2.83;;
14381;SDS011;7275;50.328;8.720;2023-06-14T01:59:04;2.60;;;2.40;;
14381;SDS011;7275;50.328;8.720;2023-06-14T02:01:31;2.77;;;2.47;;
14381;SDS011;7275;50.328;8.720;2023-06-14T02:04:00;3.33;;;2.70;;
14381;SDS011;7275;50.328;8.720;2023-06-14T02:06:28;3.10;;;2.70;;
14381;SDS011;7275;50.328;8.720;2023-06-14T02:08:56;3.30;;;2.40;;
14381;SDS011;7275;50.328;8.720;2023-06-14T02:11:24;2.77;;;2.57;;
14381;SDS011;7275;50.328;8.720;2023-06-14T02:13:54;2.53;;;2.30;;
14381;SDS011;7275;50.328;8.720;2023-06-14T02:16:22;3.80;;;2.40;;
14381;SDS011;7275;50.328;8.720;2023-06-14T02:18:51;3.13;;;2.70;;
14381;SDS011;7275;50.328;8.720;2023-06-14T02:21:19;3.37;;;2.60;;
14381;SDS011;7275;50.328;8.720;2023-06-14T02:23:47;2.50;;;2.30;;
14381;SDS011;7275;50.328;8.720;2023-06-14T02:26:15;3.00;;;2.23;;
14381;SDS011;7275;50.328;8.720;2023-06-14T02:28:42;2.60;;;2.40;;
14381;SDS011;7275;50.328;8.720;2023-06-14T02:31:12;2.70;;;2.50;;
14381;SDS011;7275;50.328;8.720;2023-06-14T02:33:39;3.50;;;2.83;;
14381;SDS011;7275;50.328;8.720;2023-06-14T02:36:08;3.17;;;2.40;;
14381;SDS011;7275;50.328;8.720;2023-06-14T02:38:35;2.97;;;2.43;;
14381;SDS011;7275;50.328;8.720;2023-06-14T02:41:03;3.73;;;2.60;;
14381;SDS011;7275;50.328;8.720;2023-06-14T02:43:32;2.90;;;2.70;;
14381;SDS011;7275;50.328;8.720;2023-06-14T02:46:00;3.07;;;2.70;;
14381;SDS011;7275;50.328;8.720;2023-06-14T02:48:29;3.63;;;2.73;;
14381;SDS011;7275;50.328;8.720;2023-06-14T02:50:57;4.23;;;2.80;;
14381;SDS011;7275;50.328;8.720;2023-06-14T02:53:25;3.17;;;2.87;;
14381;SDS011;7275;50.328;8.720;2023-06-14T02:55:53;2.93;;;2.63;;
14381;SDS011;7275;50.328;8.720;2023-06-14T02:58:21;3.17;;;2.70;;
14381;SDS011;7275;50.328;8.720;2023-06-14T03:00:51;2.97;;;2.67;;
14381;SDS011;7275;50.328;8.720;2023-06-14T03:03:20;3.27;;;2.73;;
14381;SDS011;7275;50.328;8.720;2023-06-14T03:05:50;5.50;;;2.63;;
14381;SDS011;7275;50.328;8.720;2023-06-14T03:08:18;4.10;;;2.73;;
14381;SDS011;7275;50.328;8.720;2023-06-14T03:10:46;4.50;;;2.83;;
14381;SDS011;7275;50.328;8.720;2023-06-14T03:13:14;3.30;;;2.80;;
14381;SDS011;7275;50.328;8.720;2023-06-14T03:15:43;3.20;;;2.77;;
14381;SDS011;7275;50.328;8.720;2023-06-14T03:18:11;3.30;;;2.70;;
14381;SDS011;7275;50.328;8.720;2023-06-14T03:20:39;3.40;;;2.60;;
14381;SDS011;7275;50.328;8.720;2023-06-14T03:23:08;3.23;;;2.53;;
14381;SDS011;7275;50.328;8.720;2023-06-14T03:25:36;3.83;;;3.00;;
14381;SDS011;7275;50.328;8.720;2023-06-14T03:28:04;3.83;;;2.50;;
14381;SDS011;7275;50.328;8.720;2023-06-14T03:30:32;3.00;;;2.80;;
14381;SDS011;7275;50.328;8.720;2023-06-14T03:33:00;3.17;;;2.70;;
14381;SDS011;7275;50.328;8.720;2023-06-14T03:35:28;2.60;;;2.40;;
14381;SDS011;7275;50.328;8.720;2023-06-14T03:37:56;4.33;;;2.70;;
14381;SDS011;7275;50.328;8.720;2023-06-14T03:40:25;4.43;;;2.90;;
14381;SDS011;7275;50.328;8.720;2023-06-14T03:42:53;5.00;;;2.77;;
14381;SDS011;7275;50.328;8.720;2023-06-14T03:45:21;3.03;;;2.43;;
14381;SDS011;7275;50.328;8.720;2023-06-14T03:47:49;2.90;;;2.60;;
14381;SDS011;7275;50.328;8.720;2023-06-14T03:50:18;3.07;;;2.50;;
14381;SDS011;7275;50.328;8.720;2023-06-14T03:52:46;3.63;;;2.70;;
14381;SDS011;7275;50.328;8.720;2023-06-14T03:55:15;4.67;;;2.80;;
14381;SDS011;7275;50.328;8.720;2023-06-14T03:57:47;2.60;;;2.40;;
14381;SDS011;7275;50.328;8.720;2023-06-14T04:00:14;4.80;;;2.70;;
14381;SDS011;7275;50.328;8.720;2023-06-14T04:02:42;4.60;;;2.70;;
14381;SDS011;7275;50.328;8.720;2023-06-14T04:05:11;2.67;;;2.47;;
14381;SDS011;7275;50.328;8.720;2023-06-14T04:07:39;2.77;;;2.33;;
14381;SDS011;7275;50.328;8.720;2023-06-14T04:10:11;2.67;;;2.47;;
14381;SDS011;7275;50.328;8.720;2023-06-14T04:12:40;4.00;;;2.30;;
14381;SDS011;7275;50.328;8.720;2023-06-14T04:15:11;3.03;;;2.43;;
14381;SDS011;7275;50.328;8.720;2023-06-14T04:17:46;4.23;;;2.60;;
14381;SDS011;7275;50.328;8.720;2023-06-14T04:20:14;3.07;;;2.50;;
14381;SDS011;7275;50.328;8.720;2023-06-14T04:22:43;2.83;;;2.50;;
14381;SDS011;7275;50.328;8.720;2023-06-14T04:25:11;3.07;;;2.50;;
14381;SDS011;7275;50.328;8.720;2023-06-14T04:27:38;3.47;;;2.27;;
14381;SDS011;7275;50.328;8.720;2023-06-14T04:30:08;3.73;;;2.50;;
14381;SDS011;7275;50.328;8.720;2023-06-14T04:32:37;2.70;;;2.50;;
14381;SDS011;7275;50.328;8.720;2023-06-14T04:35:06;4.97;;;2.40;;
14381;SDS011;7275;50.328;8.720;2023-06-14T04:37:35;2.83;;;2.57;;
14381;SDS011;7275;50.328;8.720;2023-06-14T04:40:07;2.60;;;2.40;;
14381;SDS011;7275;50.328;8.720;2023-06-14T04:42:38;3.17;;;2.47;;
14381;SDS011;7275;50.328;8.720;2023-06-14T04:45:07;3.07;;;2.77;;
14381;SDS011;7275;50.328;8.720;2023-06-14T04:47:37;3.00;;;2.60;;
14381;SDS011;7275;50.328;8.720;2023-06-14T04:50:06;4.30;;;2.40;;
14381;SDS011;7275;50.328;8.720;2023-06-14T04:52:35;2.97;;;2.57;;
14381;SDS011;7275;50.328;8.720;2023-06-14T04:55:03;3.00;;;2.40;;
14381;SDS011;7275;50.328;8.720;2023-06-14T04:57:31;3.77;;;2.60;;
14381;SDS011;7275;50.328;8.720;2023-06-14T04:59:59;3.33;;;2.53;;
14381;SDS011;7275;50.328;8.720;2023-06-14T05:02:30;3.00;;;2.70;;
14381;SDS011;7275;50.328;8.720;2023-06-14T05:04:59;2.50;;;2.30;;
14381;SDS011;7275;50.328;8.720;2023-06-14T05:07:28;3.53;;;2.30;;
14381;SDS011;7275;50.328;8.720;2023-06-14T05:09:55;2.60;;;2.40;;
14381;SDS011;7275;50.328;8.720;2023-06-14T05:12:23;4.17;;;2.60;;
14381;SDS011;7275;50.328;8.720;2023-06-14T05:14:51;3.67;;;2.40;;
14381;SDS011;7275;50.328;8.720;2023-06-14T05:17:18;2.97;;;2.47;;
14381;SDS011;7275;50.328;8.720;2023-06-14T05:19:46;2.80;;;2.57;;
14381;SDS011;7275;50.328;8.720;2023-06-14T05:22:17;3.00;;;2.30;;
14381;SDS011;7275;50.328;8.720;2023-06-14T05:24:45;3.07;;;2.50;;
14381;SDS011;7275;50.328;8.720;2023-06-14T05:27:14;2.97;;;2.27;;
14381;SDS011;7275;50.328;8.720;2023-06-14T05:29:42;3.33;;;2.40;;
14381;SDS011;7275;50.328;8.720;2023-06-14T05:32:09;2.47;;;2.27;;
14381;SDS011;7275;50.328;8.720;2023-06-14T05:34:37;3.83;;;2.43;;
14381;SDS011;7275;50.328;8.720;2023-06-14T05:37:05;2.40;;;2.20;;
14381;SDS011;7275;50.328;8.720;2023-06-14T05:39:34;4.80;;;2.00;;
14381;SDS011;7275;50.328;8.720;2023-06-14T05:42:02;2.50;;;2.30;;
14381;SDS011;7275;50.328;8.720;2023-06-14T05:44:30;4.63;;;2.40;;
14381;SDS011;7275;50.328;8.720;2023-06-14T05:46:57;4.23;;;2.43;;
14381;SDS011;7275;50.328;8.720;2023-06-14T05:49:25;3.10;;;2.40;;
14381;SDS011;7275;50.328;8.720;2023-06-14T05:51:53;3.47;;;2.50;;
14381;SDS011;7275;50.328;8.720;2023-06-14T05:54:21;2.67;;;2.37;;
14381;SDS011;7275;50.328;8.720;2023-06-14T05:56:50;2.73;;;2.50;;
14381;SDS011;7275;50.328;8.720;2023-06-14T05:59:17;2.20;;;2.00;;
14381;SDS011;7275;50.328;8.720;2023-06-14T06:01:45;2.70;;;2.50;;
14381;SDS011;7275;50.328;8.720;2023-06-14T06:04:13;3.83;;;2.57;;
14381;SDS011;7275;50.328;8.720;2023-06-14T06:06:41;2.80;;;2.23;;
14381;SDS011;7275;50.328;8.720;2023-06-14T06:09:08;2.93;;;2.33;;
14381;SDS011;7275;50.328;8.720;2023-06-14T06:11:36;2.80;;;2.40;;
14381;SDS011;7275;50.328;8.720;2023-06-14T06:14:19;2.47;;;2.13;;
14381;SDS011;7275;50.328;8.720;2023-06-14T06:16:47;3.13;;;2.27;;
14381;SDS011;7275;50.328;8.720;2023-06-14T06:19:15;2.40;;;2.10;;
14381;SDS011;7275;50.328;8.720;2023-06-14T06:21:43;2.57;;;2.10;;
14381;SDS011;7275;50.328;8.720;2023-06-14T06:24:10;5.97;;;2.20;;
14381;SDS011;7275;50.328;8.720;2023-06-14T06:26:38;4.23;;;2.20;;
14381;SDS011;7275;50.328;8.720;2023-06-14T06:29:06;3.27;;;2.27;;
14381;SDS011;7275;50.328;8.720;2023-06-14T06:31:35;2.30;;;2.00;;
14381;SDS011;7275;50.328;8.720;2023-06-14T06:34:03;2.40;;;2.20;;
14381;SDS011;7275;50.328;8.720;2023-06-14T06:36:31;3.80;;;2.50;;
14381;SDS011;7275;50.328;8.720;2023-06-14T06:38:58;3.30;;;2.10;;
14381;SDS011;7275;50.328;8.720;2023-06-14T06:41:26;2.07;;;1.87;;
14381;SDS011;7275;50.328;8.720;2023-06-14T06:43:54;3.40;;;2.03;;
14381;SDS011;7275;50.328;8.720;2023-06-14T06:46:22;4.03;;;2.10;;
14381;SDS011;7275;50.328;8.720;2023-06-14T06:48:51;2.37;;;2.00;;
14381;SDS011;7275;50.328;8.720;2023-06-14T06:51:19;2.37;;;2.00;;
14381;SDS011;7275;50.328;8.720;2023-06-14T06:53:51;2.30;;;2.10;;
14381;SDS011;7275;50.328;8.720;2023-06-14T06:56:20;2.17;;;1.93;;
14381;SDS011;7275;50.328;8.720;2023-06-14T06:58:49;3.40;;;2.17;;
14381;SDS011;7275;50.328;8.720;2023-06-14T07:01:17;2.30;;;2.10;;
14381;SDS011;7275;50.328;8.720;2023-06-14T07:03:46;2.10;;;1.90;;
14381;SDS011;7275;50.328;8.720;2023-06-14T07:06:15;2.47;;;2.00;;
14381;SDS011;7275;50.328;8.720;2023-06-14T07:08:44;2.17;;;1.80;;
14381;SDS011;7275;50.328;8.720;2023-06-14T07:11:14;3.35;;;2.20;;
14381;SDS011;7275;50.328;8.720;2023-06-14T07:13:41;2.10;;;1.90;;
14381;SDS011;7275;50.328;8.720;2023-06-14T07:16:09;1.90;;;1.70;;
14381;SDS011;7275;50.328;8.720;2023-06-14T07:18:37;1.90;;;1.75;;
14381;SDS011;7275;50.328;8.720;2023-06-14T07:21:04;2.10;;;1.90;;
14381;SDS011;7275;50.328;8.720;2023-06-14T07:23:33;1.90;;;1.80;;
14381;SDS011;7275;50.328;8.720;2023-06-14T07:26:01;3.25;;;2.13;;
14381;SDS011;7275;50.328;8.720;2023-06-14T07:28:29;1.80;;;1.70;;
14381;SDS011;7275;50.328;8.720;2023-06-14T07:30:57;2.40;;;1.73;;
14381;SDS011;7275;50.328;8.720;2023-06-14T07:33:24;2.00;;;1.60;;
14381;SDS011;7275;50.328;8.720;2023-06-14T07:35:52;1.92;;;1.70;;
14381;SDS011;7275;50.328;8.720;2023-06-14T07:38:20;1.67;;;1.58;;
14381;SDS011;7275;50.328;8.720;2023-06-14T07:40:49;1.88;;;1.65;;
14381;SDS011;7275;50.328;8.720;2023-06-14T07:43:16;2.55;;;1.67;;
14381;SDS011;7275;50.328;8.720;2023-06-14T07:45:47;1.88;;;1.60;;
14381;SDS011;7275;50.328;8.720;2023-06-14T07:48:32;1.85;;;1.55;;
14381;SDS011;7275;50.328;8.720;2023-06-14T07:51:00;2.00;;;1.63;;
14381;SDS011;7275;50.328;8.720;2023-06-14T07:53:28;1.33;;;1.20;;
14381;SDS011;7275;50.328;8.720;2023-06-14T07:55:58;2.00;;;1.40;;
14381;SDS011;7275;50.328;8.720;2023-06-14T07:58:26;2.65;;;1.40;;
14381;SDS011;7275;50.328;8.720;2023-06-14T08:00:53;1.58;;;1.27;;
14381;SDS011;7275;50.328;8.720;2023-06-14T08:03:21;1.88;;;1.60;;
14381;SDS011;7275;50.328;8.720;2023-06-14T08:05:50;3.55;;;1.48;;
14381;SDS011;7275;50.328;8.720;2023-06-14T08:08:18;2.47;;;1.60;;
14381;SDS011;7275;50.328;8.720;2023-06-14T08:10:46;1.75;;;1.60;;
14381;SDS011;7275;50.328;8.720;2023-06-14T08:13:15;2.40;;;1.67;;
14381;SDS011;7275;50.328;8.720;2023-06-14T08:15:42;1.63;;;1.40;;
14381;SDS011;7275;50.328;8.720;2023-06-14T08:18:10;3.30;;;1.70;;
14381;SDS011;7275;50.328;8.720;2023-06-14T08:20:39;4.70;;;1.63;;
14381;SDS011;7275;50.328;8.720;2023-06-14T08:23:07;1.60;;;1.45;;
14381;SDS011;7275;50.328;8.720;2023-06-14T08:25:35;2.03;;;1.55;;
14381;SDS011;7275;50.328;8.720;2023-06-14T08:28:03;1.58;;;1.42;;
14381;SDS011;7275;50.328;8.720;2023-06-14T08:30:32;1.40;;;1.30;;
14381;SDS011;7275;50.328;8.720;2023-06-14T08:33:00;1.73;;;1.30;;
14381;SDS011;7275;50.328;8.720;2023-06-14T08:35:42;1.30;;;1.20;;
14381;SDS011;7275;50.328;8.720;2023-06-14T08:38:10;1.55;;;1.45;;
14381;SDS011;7275;50.328;8.720;2023-06-14T08:40:38;1.48;;;1.30;;
14381;SDS011;7275;50.328;8.720;2023-06-14T08:43:07;1.30;;;1.20;;
14381;SDS011;7275;50.328;8.720;2023-06-14T08:45:36;2.13;;;1.30;;
14381;SDS011;7275;50.328;8.720;2023-06-14T08:48:04;1.50;;;1.20;;
14381;SDS011;7275;50.328;8.720;2023-06-14T08:50:34;1.52;;;1.42;;
14381;SDS011;7275;50.328;8.720;2023-06-14T08:53:04;1.63;;;1.42;;
14381;SDS011;7275;50.328;8.720;2023-06-14T08:55:36;1.27;;;1.17;;
14381;SDS011;7275;50.328;8.720;2023-06-14T08:58:08;2.40;;;1.38;;
14381;SDS011;7275;50.328;8.720;2023-06-14T09:00:42;1.65;;;1.40;;
14381;SDS011;7275;50.328;8.720;2023-06-14T09:03:11;2.50;;;1.73;;
14381;SDS011;7275;50.328;8.720;2023-06-14T09:05:41;2.33;;;1.48;;
14381;SDS011;7275;50.328;8.720;2023-06-14T09:08:10;1.73;;;1.60;;
14381;SDS011;7275;50.328;8.720;2023-06-14T09:10:38;1.45;;;1.30;;
14381;SDS011;7275;50.328;8.720;2023-06-14T09:13:07;1.50;;;1.30;;
14381;SDS011;7275;50.328;8.720;2023-06-14T09:15:35;1.73;;;1.35;;
14381;SDS011;7275;50.328;8.720;2023-06-14T09:18:04;1.58;;;1.40;;
14381;SDS011;7275;50.328;8.720;2023-06-14T09:20:33;2.25;;;1.60;;
14381;SDS011;7275;50.328;8.720;2023-06-14T09:23:01;2.00;;;1.67;;
14381;SDS011;7275;50.328;8.720;2023-06-14T09:25:31;1.55;;;1.45;;
14381;SDS011;7275;50.328;8.720;2023-06-14T09:28:06;1.85;;;1.45;;
14381;SDS011;7275;50.328;8.720;2023-06-14T09:30:35;1.48;;;1.33;;
14381;SDS011;7275;50.328;8.720;2023-06-14T09:33:04;2.05;;;1.70;;
14381;SDS011;7275;50.328;8.720;2023-06-14T09:35:32;1.50;;;1.40;;
14381;SDS011;7275;50.328;8.720;2023-06-14T09:38:00;1.40;;;1.30;;
14381;SDS011;7275;50.328;8.720;2023-06-14T09:40:28;1.73;;;1.63;;
14381;SDS011;7275;50.328;8.720;2023-06-14T09:43:00;1.45;;;1.35;;
14381;SDS011;7275;50.328;8.720;2023-06-14T09:45:31;1.70;;;1.50;;
14381;SDS011;7275;50.328;8.720;2023-06-14T09:47:59;1.50;;;1.40;;
14381;SDS011;7275;50.328;8.720;2023-06-14T09:50:34;2.78;;;1.30;;
14381;SDS011;7275;50.328;8.720;2023-06-14T09:53:02;2.28;;;1.52;;
14381;SDS011;7275;50.328;8.720;2023-06-14T09:55:34;1.65;;;1.55;;
14381;SDS011;7275;50.328;8.720;2023-06-14T09:58:05;1.45;;;1.35;;
14381;SDS011;7275;50.328;8.720;2023-06-14T10:00:34;1.98;;;1.50;;
14381;SDS011;7275;50.328;8.720;2023-06-14T10:03:05;1.75;;;1.38;;
14381;SDS011;7275;50.328;8.720;2023-06-14T10:05:41;1.33;;;1.23;;
14381;SDS011;7275;50.328;8.720;2023-06-14T10:08:13;1.70;;;1.40;;
14381;SDS011;7275;50.328;8.720;2023-06-14T10:10:43;1.77;;;1.40;;
14381;SDS011;7275;50.328;8.720;2023-06-14T10:13:11;1.77;;;1.67;;
14381;SDS011;7275;50.328;8.720;2023-06-14T10:15:41;1.45;;;1.35;;
14381;SDS011;7275;50.328;8.720;2023-06-14T10:18:24;1.60;;;1.50;;
14381;SDS011;7275;50.328;8.720;2023-06-14T10:21:04;2.50;;;1.60;;
14381;SDS011;7275;50.328;8.720;2023-06-14T10:23:41;1.50;;;1.40;;
14381;SDS011;7275;50.328;8.720;2023-06-14T10:26:17;1.48;;;1.38;;
14381;SDS011;7275;50.328;8.720;2023-06-14T10:28:57;1.90;;;1.55;;
14381;SDS011;7275;50.328;8.720;2023-06-14T10:31:40;1.60;;;1.50;;
14381;SDS011;7275;50.328;8.720;2023-06-14T10:34:09;2.03;;;1.60;;
14381;SDS011;7275;50.328;8.720;2023-06-14T10:36:42;1.60;;;1.50;;
14381;SDS011;7275;50.328;8.720;2023-06-14T10:39:14;1.42;;;1.33;;
14381;SDS011;7275;50.328;8.720;2023-06-14T10:41:50;1.60;;;1.50;;
14381;SDS011;7275;50.328;8.720;2023-06-14T10:44:32;1.67;;;1.40;;
14381;SDS011;7275;50.328;8.720;2023-06-14T10:47:01;1.38;;;1.27;;
14381;SDS011;7275;50.328;8.720;2023-06-14T10:49:42;1.65;;;1.55;;
14381;SDS011;7275;50.328;8.720;2023-06-14T10:52:12;1.60;;;1.50;;
14381;SDS011;7275;50.328;8.720;2023-06-14T10:57:43;1.48;;;1.38;;
14381;SDS011;7275;50.328;8.720;2023-06-14T11:00:18;1.38;;;1.27;;
14381;SDS011;7275;50.328;8.720;2023-06-14T11:03:03;1.52;;;1.42;;
14381;SDS011;7275;50.328;8.720;2023-06-14T11:05:57;1.55;;;1.45;;
14381;SDS011;7275;50.328;8.720;2023-06-14T11:11:29;1.70;;;1.60;;
14381;SDS011;7275;50.328;8.720;2023-06-14T11:14:00;1.35;;;1.25;;
14381;SDS011;7275;50.328;8.720;2023-06-14T11:16:28;2.55;;;1.58;;
14381;SDS011;7275;50.328;8.720;2023-06-14T11:18:59;2.20;;;1.42;;
14381;SDS011;7275;50.328;8.720;2023-06-14T11:21:27;1.70;;;1.50;;
14381;SDS011;7275;50.328;8.720;2023-06-14T11:23:59;1.48;;;1.38;;
14381;SDS011;7275;50.328;8.720;2023-06-14T11:26:27;2.10;;;1.67;;
14381;SDS011;7275;50.328;8.720;2023-06-14T11:28:56;1.95;;;1.50;;
14381;SDS011;7275;50.328;8.720;2023-06-14T11:31:25;3.55;;;1.75;;
14381;SDS011;7275;50.328;8.720;2023-06-14T11:33:54;1.70;;;1.38;;
14381;SDS011;7275;50.328;8.720;2023-06-14T11:36:22;2.90;;;1.40;;
14381;SDS011;7275;50.328;8.720;2023-06-14T11:38:58;1.38;;;1.27;;
14381;SDS011;7275;50.328;8.720;2023-06-14T11:41:32;1.35;;;1.25;;
14381;SDS011;7275;50.328;8.720;2023-06-14T11:44:00;1.52;;;1.42;;
14381;SDS011;7275;50.328;8.720;2023-06-14T11:46:29;1.50;;;1.30;;
14381;SDS011;7275;50.328;8.720;2023-06-14T11:48:56;1.65;;;1.50;;
14381;SDS011;7275;50.328;8.720;2023-06-14T11:51:24;2.22;;;1.45;;
14381;SDS011;7275;50.328;8.720;2023-06-14T11:53:52;1.60;;;1.50;;
14381;SDS011;7275;50.328;8.720;2023-06-14T11:56:21;1.50;;;1.30;;
14381;SDS011;7275;50.328;8.720;2023-06-14T11:58:49;1.60;;;1.50;;
14381;SDS011;7275;50.328;8.720;2023-06-14T12:01:17;1.83;;;1.50;;
14381;SDS011;7275;50.328;8.720;2023-06-14T12:03:48;1.60;;;1.50;;
14381;SDS011;7275;50.328;8.720;2023-06-14T12:06:16;1.50;;;1.40;;
14381;SDS011;7275;50.328;8.720;2023-06-14T12:08:55;2.03;;;1.50;;
14381;SDS011;7275;50.328;8.720;2023-06-14T12:11:24;1.65;;;1.50;;
14381;SDS011;7275;50.328;8.720;2023-06-14T12:13:59;1.50;;;1.40;;
14381;SDS011;7275;50.328;8.720;2023-06-14T12:16:31;1.63;;;1.40;;
14381;SDS011;7275;50.328;8.720;2023-06-14T12:19:00;1.70;;;1.40;;
14381;SDS011;7275;50.328;8.720;2023-06-14T12:21:34;1.73;;;1.40;;
14381;SDS011;7275;50.328;8.720;2023-06-14T12:24:05;3.05;;;1.33;;
14381;SDS011;7275;50.328;8.720;2023-06-14T12:26:37;1.92;;;1.30;;
14381;SDS011;7275;50.328;8.720;2023-06-14T12:29:06;1.60;;;1.50;;
14381;SDS011;7275;50.328;8.720;2023-06-14T12:31:34;2.05;;;1.23;;
14381;SDS011;7275;50.328;8.720;2023-06-14T12:34:02;1.67;;;1.50;;
14381;SDS011;7275;50.328;8.720;2023-06-14T12:36:30;2.58;;;1.60;;
14381;SDS011;7275;50.328;8.720;2023-06-14T12:38:58;1.50;;;1.40;;
14381;SDS011;7275;50.328;8.720;2023-06-14T12:41:26;1.85;;;1.52;;
14381;SDS011;7275;50.328;8.720;2023-06-14T12:43:55;1.70;;;1.58;;
14381;SDS011;7275;50.328;8.720;2023-06-14T12:46:24;10.07;;;2.83;;
14381;SDS011;7275;50.328;8.720;2023-06-14T12:48:52;1.75;;;1.65;;
14381;SDS011;7275;50.328;8.720;2023-06-14T12:51:19;1.60;;;1.50;;
14381;SDS011;7275;50.328;8.720;2023-06-14T12:53:47;1.95;;;1.30;;
14381;SDS011;7275;50.328;8.720;2023-06-14T12:56:15;1.88;;;1.70;;
14381;SDS011;7275;50.328;8.720;2023-06-14T12:58:43;1.60;;;1.50;;
14381;SDS011;7275;50.328;8.720;2023-06-14T13:01:12;2.15;;;1.60;;
14381;SDS011;7275;50.328;8.720;2023-06-14T13:03:39;1.80;;;1.70;;
14381;SDS011;7275;50.328;8.720;2023-06-14T13:06:07;3.15;;;1.55;;
14381;SDS011;7275;50.328;8.720;2023-06-14T13:08:35;2.75;;;1.48;;
14381;SDS011;7275;50.328;8.720;2023-06-14T13:11:02;2.03;;;1.50;;
14381;SDS011;7275;50.328;8.720;2023-06-14T13:13:30;1.60;;;1.50;;
14381;SDS011;7275;50.328;8.720;2023-06-14T13:16:01;1.80;;;1.70;;
14381;SDS011;7275;50.328;8.720;2023-06-14T13:18:30;2.00;;;1.42;;
14381;SDS011;7275;50.328;8.720;2023-06-14T13:20:58;1.60;;;1.50;;
14381;SDS011;7275;50.328;8.720;2023-06-14T13:23:25;1.77;;;1.65;;
14381;SDS011;7275;50.328;8.720;2023-06-14T13:25:53;2.78;;;1.40;;
14381;SDS011;7275;50.328;8.720;2023-06-14T13:28:21;2.33;;;1.50;;
14381;SDS011;7275;50.328;8.720;2023-06-14T13:30:48;1.88;;;1.55;;
14381;SDS011;7275;50.328;8.720;2023-06-14T13:33:16;2.50;;;1.70;;
14381;SDS011;7275;50.328;8.720;2023-06-14T13:35:45;1.50;;;1.40;;
14381;SDS011;7275;50.328;8.720;2023-06-14T13:38:13;1.75;;;1.50;;
14381;SDS011;7275;50.328;8.720;2023-06-14T13:40:41;1.50;;;1.40;;
14381;SDS011;7275;50.328;8.720;2023-06-14T13:43:08;1.88;;;1.60;;
14381;SDS011;7275;50.328;8.720;2023-06-14T13:45:36;1.88;;;1.77;;
14381;SDS011;7275;50.328;8.720;2023-06-14T13:48:21;1.58;;;1.40;;
14381;SDS011;7275;50.328;8.720;2023-06-14T13:51:08;1.63;;;1.52;;
14381;SDS011;7275;50.328;8.720;2023-06-14T13:53:55;1.77;;;1.40;;
14381;SDS011;7275;50.328;8.720;2023-06-14T13:56:40;1.60;;;1.50;;
14381;SDS011;7275;50.328;8.720;2023-06-14T13:59:25;2.05;;;1.38;;
14381;SDS011;7275;50.328;8.720;2023-06-14T14:02:11;1.48;;;1.38;;
14381;SDS011;7275;50.328;8.720;2023-06-14T14:04:57;1.70;;;1.60;;
14381;SDS011;7275;50.328;8.720;2023-06-14T14:07:43;1.38;;;1.27;;
14381;SDS011;7275;50.328;8.720;2023-06-14T14:10:29;4.28;;;1.60;;
14381;SDS011;7275;50.328;8.720;2023-06-14T14:13:14;6.93;;;1.67;;
14381;SDS011;7275;50.328;8.720;2023-06-14T14:15:59;1.60;;;1.45;;
14381;SDS011;7275;50.328;8.720;2023-06-14T14:18:45;2.47;;;1.50;;
14381;SDS011;7275;50.328;8.720;2023-06-14T14:21:30;1.70;;;1.52;;
14381;SDS011;7275;50.328;8.720;2023-06-14T14:24:17;1.67;;;1.42;;
14381;SDS011;7275;50.328;8.720;2023-06-14T14:27:02;1.73;;;1.63;;
14381;SDS011;7275;50.328;8.720;2023-06-14T14:29:47;1.90;;;1.70;;
14381;SDS011;7275;50.328;8.720;2023-06-14T14:32:15;1.67;;;1.40;;
14381;SDS011;7275;50.328;8.720;2023-06-14T14:34:43;1.83;;;1.50;;
14381;SDS011;7275;50.328;8.720;2023-06-14T14:37:10;2.55;;;1.50;;
14381;SDS011;7275;50.328;8.720;2023-06-14T14:39:40;2.92;;;1.50;;
14381;SDS011;7275;50.328;8.720;2023-06-14T14:42:08;1.60;;;1.50;;
14381;SDS011;7275;50.328;8.720;2023-06-14T14:44:37;1.50;;;1.40;;
14381;SDS011;7275;50.328;8.720;2023-06-14T14:47:05;1.92;;;1.70;;
14381;SDS011;7275;50.328;8.720;2023-06-14T14:49:33;2.65;;;1.58;;
14381;SDS011;7275;50.328;8.720;2023-06-14T14:52:01;2.05;;;1.50;;
14381;SDS011;7275;50.328;8.720;2023-06-14T14:54:49;2.25;;;1.45;;
14381;SDS011;7275;50.328;8.720;2023-06-14T14:57:16;1.60;;;1.50;;
14381;SDS011;7275;50.328;8.720;2023-06-14T14:59:44;1.63;;;1.52;;
14381;SDS011;7275;50.328;8.720;2023-06-14T15:02:12;1.75;;;1.38;;
14381;SDS011;7275;50.328;8.720;2023-06-14T15:04:39;3.95;;;1.50;;
14381;SDS011;7275;50.328;8.720;2023-06-14T15:07:07;1.67;;;1.50;;
14381;SDS011;7275;50.328;8.720;2023-06-14T15:09:35;1.95;;;1.75;;
14381;SDS011;7275;50.328;8.720;2023-06-14T15:12:05;1.50;;;1.40;;
14381;SDS011;7275;50.328;8.720;2023-06-14T15:14:33;1.55;;;1.40;;
14381;SDS011;7275;50.328;8.720;2023-06-14T15:17:01;1.60;;;1.50;;
14381;SDS011;7275;50.328;8.720;2023-06-14T15:19:32;2.15;;;1.48;;
14381;SDS011;7275;50.328;8.720;2023-06-14T15:22:00;3.17;;;1.58;;
14381;SDS011;7275;50.328;8.720;2023-06-14T15:24:29;2.97;;;1.60;;